createdAt,value
2022-09-17T00:01:08.627Z,80.80
2022-09-17T00:03:36.457Z,80.80
2022-09-17T00:06:13.410Z,80.90
2022-09-17T00:08:41.721Z,80.90
2022-09-17T00:11:15.277Z,81.80
2022-09-17T00:13:44.241Z,80.90
2022-09-17T00:16:11.657Z,80.90
2022-09-17T00:18:42.177Z,81.00
2022-09-17T00:21:19.856Z,80.80
2022-09-17T00:23:47.351Z,80.80
2022-09-17T00:26:14.662Z,80.80
2022-09-17T00:28:45.474Z,80.70
2022-09-17T00:31:12.818Z,80.70
2022-09-17T00:33:39.902Z,80.60
2022-09-17T00:36:07.550Z,80.60
2022-09-17T00:38:34.950Z,80.70
2022-09-17T00:41:02.754Z,80.70
2022-09-17T00:43:38.585Z,80.50
2022-09-17T00:46:16.836Z,80.50
2022-09-17T00:48:45.425Z,80.50
2022-09-17T00:51:16.340Z,80.60
2022-09-17T00:53:43.566Z,80.60
2022-09-17T00:56:17.721Z,81.60
2022-09-17T00:58:44.795Z,80.50
2022-09-17T01:01:11.876Z,80.50
2022-09-17T01:03:38.908Z,80.40
2022-09-17T01:06:30.738Z,80.40
2022-09-17T01:09:03.814Z,80.50
2022-09-17T01:11:43.350Z,80.30
2022-09-17T01:14:36.876Z,80.40
2022-09-17T01:17:34.937Z,80.40
2022-09-17T01:20:32.046Z,80.50
2022-09-17T01:23:30.700Z,80.40
2022-09-17T01:26:00.576Z,80.40
2022-09-17T01:28:38.692Z,80.40
2022-09-17T01:31:17.684Z,80.30
2022-09-17T01:34:08.620Z,80.30
2022-09-17T01:37:01.641Z,80.20
2022-09-17T01:39:42.024Z,80.20
2022-09-17T01:42:23.259Z,80.20
2022-09-17T01:45:09.553Z,80.20
2022-09-17T01:47:45.876Z,80.20
2022-09-17T01:50:22.273Z,80.30
2022-09-17T01:52:52.799Z,80.20
2022-09-17T01:55:22.884Z,80.20
2022-09-17T01:57:58.169Z,80.20
2022-09-17T02:00:25.312Z,80.20
2022-09-17T02:03:01.522Z,80.20
2022-09-17T02:05:31.582Z,80.20
2022-09-17T02:08:09.191Z,80.20
2022-09-17T02:10:44.951Z,80.20
2022-09-17T02:13:44.782Z,80.20
2022-09-17T02:16:26.088Z,80.10
2022-09-17T02:19:01.740Z,80.10
2022-09-17T02:21:53.000Z,80.10
2022-09-17T02:24:27.196Z,80.10
2022-09-17T02:27:18.755Z,80.10
2022-09-17T02:29:46.162Z,80.00
2022-09-17T02:32:13.817Z,80.00
2022-09-17T02:34:41.447Z,80.10
2022-09-17T02:37:08.886Z,81.00
2022-09-17T02:39:36.255Z,80.10
2022-09-17T02:42:34.663Z,80.10
2022-09-17T02:45:28.621Z,80.10
2022-09-17T02:48:24.683Z,80.10
2022-09-17T02:51:23.896Z,80.00
2022-09-17T02:54:14.031Z,80.00
2022-09-17T02:56:57.753Z,80.00
2022-09-17T02:59:38.378Z,79.90
2022-09-17T03:02:26.318Z,79.90
2022-09-17T03:04:54.031Z,79.90
2022-09-17T03:07:23.139Z,79.90
2022-09-17T03:09:50.167Z,79.90
2022-09-17T03:12:17.384Z,79.80
2022-09-17T03:14:44.370Z,79.80
2022-09-17T03:17:12.497Z,79.80
2022-09-17T03:19:39.404Z,79.80
2022-09-17T03:22:06.354Z,79.80
2022-09-17T03:24:33.208Z,79.80
2022-09-17T03:27:00.304Z,79.80
2022-09-17T03:29:27.278Z,79.80
2022-09-17T03:31:54.225Z,79.80
2022-09-17T03:34:21.618Z,79.80
2022-09-17T03:36:48.567Z,79.80
2022-09-17T03:39:15.650Z,79.70
2022-09-17T03:41:42.491Z,79.70
2022-09-17T03:44:10.707Z,79.70
2022-09-17T03:46:37.938Z,79.70
2022-09-17T03:49:04.945Z,79.70
2022-09-17T03:51:31.919Z,79.80
2022-09-17T03:53:58.853Z,79.70
2022-09-17T03:56:26.814Z,79.60
2022-09-17T03:58:58.431Z,79.70
2022-09-17T04:01:25.863Z,79.60
2022-09-17T04:03:53.406Z,79.70
2022-09-17T04:06:20.672Z,79.60
2022-09-17T04:08:47.662Z,79.60
2022-09-17T04:11:14.784Z,79.60
2022-09-17T04:13:41.929Z,79.60
2022-09-17T04:16:09.056Z,79.60
2022-09-17T04:18:36.088Z,79.50
2022-09-17T04:21:03.865Z,79.50
2022-09-17T04:23:30.814Z,79.50
2022-09-17T04:25:57.914Z,79.60
2022-09-17T04:28:24.920Z,79.50
2022-09-17T04:30:51.904Z,79.50
2022-09-17T04:33:18.943Z,79.50
2022-09-17T04:35:45.969Z,79.50
2022-09-17T04:38:18.461Z,79.60
2022-09-17T04:40:46.751Z,79.50
2022-09-17T04:43:14.213Z,79.40
2022-09-17T04:45:41.221Z,79.40
2022-09-17T04:48:08.167Z,79.40
2022-09-17T04:50:35.178Z,79.40
2022-09-17T04:54:14.938Z,78.70
2022-09-17T04:56:41.894Z,79.40
2022-09-17T04:59:09.042Z,79.30
2022-09-17T05:01:35.906Z,79.30
2022-09-17T05:04:03.061Z,79.30
2022-09-17T05:06:29.927Z,79.40
2022-09-17T05:08:57.004Z,79.30
2022-09-17T05:11:23.890Z,79.40
2022-09-17T05:13:50.816Z,78.50
2022-09-17T05:16:17.774Z,79.30
2022-09-17T05:18:44.664Z,79.30
2022-09-17T05:21:11.700Z,79.30
2022-09-17T05:23:38.814Z,79.20
2022-09-17T05:26:05.863Z,79.20
2022-09-17T05:28:32.799Z,79.30
2022-09-17T05:31:00.804Z,79.30
2022-09-17T05:33:28.333Z,79.30
2022-09-17T05:35:55.602Z,79.20
2022-09-17T05:38:22.826Z,79.20
2022-09-17T05:40:49.892Z,79.20
2022-09-17T05:43:16.916Z,79.20
2022-09-17T05:45:44.240Z,79.20
2022-09-17T05:48:15.652Z,79.20
2022-09-17T05:50:42.699Z,79.20
2022-09-17T05:53:12.766Z,79.20
2022-09-17T05:55:40.748Z,79.20
2022-09-17T05:58:16.179Z,79.20
2022-09-17T06:00:44.088Z,79.20
2022-09-17T06:03:12.522Z,79.10
2022-09-17T06:05:40.178Z,79.20
2022-09-17T06:08:07.293Z,79.20
2022-09-17T06:10:37.712Z,79.10
2022-09-17T06:13:04.834Z,80.00
2022-09-17T06:15:31.761Z,79.10
2022-09-17T06:17:58.681Z,79.10
2022-09-17T06:20:25.620Z,79.20
2022-09-17T06:22:59.138Z,79.20
2022-09-17T06:25:26.795Z,79.10
2022-09-17T06:27:53.898Z,79.10
2022-09-17T06:30:21.419Z,79.10
2022-09-17T06:32:48.399Z,79.10
2022-09-17T06:35:15.359Z,79.10
2022-09-17T06:37:42.427Z,79.00
2022-09-17T06:40:09.889Z,79.00
2022-09-17T06:42:36.771Z,79.00
2022-09-17T06:45:08.553Z,79.00
2022-09-17T06:47:37.240Z,79.10
2022-09-17T06:50:04.471Z,79.20
2022-09-17T06:52:31.361Z,79.20
2022-09-17T06:54:58.250Z,79.00
2022-09-17T06:57:25.288Z,79.40
2022-09-17T06:59:52.232Z,79.50
2022-09-17T07:02:19.158Z,79.30
2022-09-17T07:04:46.247Z,79.10
2022-09-17T07:07:13.300Z,79.10
2022-09-17T07:09:40.281Z,79.30
2022-09-17T07:12:08.423Z,79.40
2022-09-17T07:14:35.388Z,79.40
2022-09-17T07:17:03.404Z,79.10
2022-09-17T07:19:30.441Z,79.20
2022-09-17T07:21:57.449Z,79.10
2022-09-17T07:24:24.437Z,79.40
2022-09-17T07:26:51.883Z,79.50
2022-09-17T07:29:19.059Z,79.50
2022-09-17T07:31:46.216Z,79.30
2022-09-17T07:34:13.241Z,79.60
2022-09-17T07:36:40.189Z,79.80
2022-09-17T07:39:07.227Z,79.80
2022-09-17T07:41:34.957Z,79.70
2022-09-17T07:44:03.061Z,79.70
2022-09-17T07:46:30.384Z,79.70
2022-09-17T07:48:57.410Z,79.60
2022-09-17T07:51:27.939Z,79.60
2022-09-17T07:53:56.720Z,79.60
2022-09-17T07:56:24.667Z,79.80
2022-09-17T07:58:52.294Z,79.80
2022-09-17T08:01:21.340Z,79.80
2022-09-17T08:03:52.821Z,79.50
2022-09-17T08:06:22.725Z,79.50
2022-09-17T08:08:50.474Z,79.50
2022-09-17T08:14:10.668Z,79.50
2022-09-17T08:16:37.986Z,79.40
2022-09-17T08:19:05.065Z,78.40
2022-09-17T08:21:32.169Z,78.00
2022-09-17T08:23:59.447Z,77.80
2022-09-17T08:26:27.064Z,77.30
2022-09-17T08:28:56.591Z,77.30
2022-09-17T08:31:26.941Z,76.90
2022-09-17T08:33:53.986Z,74.10
2022-09-17T08:36:26.349Z,73.00
2022-09-17T08:38:54.887Z,72.40
2022-09-17T08:41:37.420Z,72.00
2022-09-17T08:44:04.946Z,71.40
2022-09-17T08:46:39.171Z,68.70
2022-09-17T08:49:22.029Z,69.00
2022-09-17T08:51:59.878Z,70.00
2022-09-17T08:54:39.008Z,70.80
2022-09-17T08:57:27.324Z,70.90
2022-09-17T08:59:57.320Z,70.80
2022-09-17T09:02:38.295Z,71.20
2022-09-17T09:05:23.009Z,71.70
2022-09-17T09:07:56.314Z,71.30
2022-09-17T09:10:32.884Z,71.30
2022-09-17T09:13:01.613Z,71.30
2022-09-17T09:15:35.806Z,71.90
2022-09-17T09:18:19.756Z,71.90
2022-09-17T09:20:53.651Z,72.80
2022-09-17T09:23:24.939Z,72.80
2022-09-17T09:26:04.632Z,72.70
2022-09-17T09:28:43.684Z,73.20
2022-09-17T09:31:46.081Z,72.60
2022-09-17T09:34:15.204Z,73.80
2022-09-17T09:36:42.340Z,73.80
2022-09-17T09:39:41.225Z,74.10
2022-09-17T09:42:16.885Z,74.10
2022-09-17T09:44:43.909Z,74.40
2022-09-17T09:47:39.343Z,74.50
2022-09-17T09:50:24.703Z,74.70
2022-09-17T09:53:13.717Z,74.70
2022-09-17T09:55:49.666Z,74.80
2022-09-17T09:58:31.646Z,75.00
2022-09-17T10:00:58.809Z,74.80
2022-09-17T10:03:32.619Z,74.90
2022-09-17T10:06:07.275Z,75.10
2022-09-17T10:08:39.755Z,74.90
2022-09-17T10:11:17.284Z,75.00
2022-09-17T10:13:44.245Z,75.00
2022-09-17T10:16:29.510Z,75.00
2022-09-17T10:19:17.705Z,75.10
2022-09-17T10:21:44.698Z,75.10
2022-09-17T10:24:33.998Z,75.20
2022-09-17T10:27:03.997Z,75.20
2022-09-17T10:29:34.592Z,75.30
2022-09-17T10:32:02.876Z,74.80
2022-09-17T10:34:31.768Z,75.40
2022-09-17T10:36:59.131Z,75.60
2022-09-17T10:39:46.414Z,75.70
2022-09-17T10:42:14.544Z,75.60
2022-09-17T10:44:59.172Z,75.80
2022-09-17T10:47:31.860Z,75.80
2022-09-17T10:50:02.947Z,76.10
2022-09-17T10:52:39.500Z,76.00
2022-09-17T10:55:33.638Z,76.00
2022-09-17T10:58:07.560Z,76.10
2022-09-17T11:00:52.949Z,76.30
2022-09-17T11:03:42.028Z,76.20
2022-09-17T11:06:21.033Z,76.20
2022-09-17T11:09:16.402Z,76.20
2022-09-17T11:11:49.413Z,76.10
2022-09-17T11:14:40.940Z,76.40
2022-09-17T11:17:47.036Z,76.00
2022-09-17T11:20:49.350Z,76.30
2022-09-17T11:23:37.381Z,76.60
2022-09-17T11:26:07.188Z,76.70
2022-09-17T11:28:58.980Z,77.40
2022-09-17T11:31:50.117Z,77.30
2022-09-17T11:34:23.824Z,76.30
2022-09-17T11:37:20.405Z,77.30
2022-09-17T11:39:55.392Z,77.10
2022-09-17T11:42:31.190Z,77.20
2022-09-17T11:45:11.945Z,77.30
2022-09-17T11:48:05.980Z,77.20
2022-09-17T11:50:41.207Z,77.10
2022-09-17T11:53:32.517Z,77.10
2022-09-17T11:56:23.281Z,77.00
2022-09-17T11:59:12.994Z,76.90
2022-09-17T12:01:51.606Z,76.90
2022-09-17T12:04:32.688Z,77.10
2022-09-17T12:07:34.671Z,77.00
2022-09-17T12:10:35.861Z,77.00
2022-09-17T14:04:52.713Z,76.20
2022-09-17T14:07:30.790Z,76.30
2022-09-17T14:10:18.659Z,77.10
2022-09-17T14:12:54.829Z,77.40
2022-09-17T14:16:00.440Z,77.20
2022-09-17T14:18:27.619Z,77.30
2022-09-17T14:21:09.887Z,77.20
2022-09-17T14:23:44.806Z,77.30
2022-09-17T14:26:39.700Z,77.40
2022-09-17T14:29:35.081Z,76.70
2022-09-17T14:32:05.478Z,77.50
2022-09-17T14:35:37.511Z,76.60
2022-09-17T14:38:19.157Z,77.40
2022-09-17T14:40:49.468Z,77.40
2022-09-17T14:43:54.143Z,76.60
2022-09-17T15:12:08.987Z,76.20
2022-09-17T15:14:39.153Z,77.90
2022-09-17T15:17:07.365Z,77.00
2022-09-17T15:19:41.273Z,76.60
2022-09-17T15:22:33.413Z,76.20
2022-09-17T15:25:17.516Z,76.00
2022-09-17T15:27:46.715Z,76.40
2022-09-17T15:30:20.196Z,77.00
2022-09-17T15:33:01.327Z,75.40
2022-09-17T15:35:33.975Z,75.40
2022-09-17T15:38:22.194Z,76.20
2022-09-17T15:40:50.430Z,75.40
2022-09-17T15:43:34.368Z,76.20
2022-09-17T15:46:26.739Z,76.20
2022-09-17T15:48:59.475Z,75.70
2022-09-17T15:51:32.433Z,75.90
2022-09-17T15:54:01.858Z,75.90
2022-09-17T15:56:40.718Z,75.70
2022-09-17T15:59:23.206Z,75.70
2022-09-17T16:01:53.577Z,75.80
2022-09-17T16:04:23.116Z,75.80
2022-09-17T16:06:55.226Z,75.80
2022-09-17T16:09:37.280Z,75.20
2022-09-17T16:12:04.371Z,75.80
2022-09-17T16:14:31.312Z,75.60
2022-09-17T16:16:59.838Z,75.50
2022-09-17T16:19:26.937Z,75.80
2022-09-17T16:21:54.034Z,76.00
2022-09-17T16:24:21.173Z,76.10
2022-09-17T16:26:48.105Z,75.70
2022-09-17T16:29:17.338Z,75.70
2022-09-17T16:31:45.084Z,75.80
2022-09-17T16:34:12.170Z,75.80
2022-09-17T16:36:39.367Z,75.80
2022-09-17T16:39:06.408Z,76.00
2022-09-17T16:41:33.545Z,76.30
2022-09-17T16:44:00.716Z,76.40
2022-09-17T16:46:27.811Z,76.50
2022-09-17T16:48:54.776Z,76.40
2022-09-17T16:51:21.882Z,76.50
2022-09-17T16:53:50.293Z,76.40
2022-09-17T16:56:17.859Z,76.50
2022-09-17T16:58:44.885Z,76.50
2022-09-17T17:01:14.565Z,76.80
2022-09-17T17:03:42.309Z,77.40
2022-09-17T17:06:20.425Z,77.20
2022-09-17T17:08:50.434Z,77.20
2022-09-17T17:11:18.605Z,77.70
2022-09-17T17:13:46.159Z,77.80
2022-09-17T17:16:15.217Z,77.20
2022-09-17T17:18:46.236Z,78.10
2022-09-17T17:21:14.788Z,78.20
2022-09-17T17:26:31.238Z,77.50
2022-09-17T17:31:05.681Z,77.50
2022-09-17T17:33:33.220Z,78.30
2022-09-17T17:36:07.308Z,78.00
2022-09-17T17:38:35.806Z,77.70
2022-09-17T17:41:11.331Z,77.40
2022-09-17T17:43:38.449Z,76.50
2022-09-17T17:46:08.088Z,76.60
2022-09-17T17:48:35.753Z,76.60
2022-09-17T17:51:05.159Z,76.60
2022-09-17T17:53:32.194Z,76.40
2022-09-17T17:56:01.440Z,76.60
2022-09-17T17:58:29.101Z,76.20
2022-09-17T18:00:56.567Z,76.40
2022-09-17T18:03:27.152Z,76.40
2022-09-17T18:05:56.987Z,77.10
2022-09-17T18:08:24.867Z,76.40
2022-09-17T18:10:56.250Z,76.00
2022-09-17T18:13:24.398Z,76.00
2022-09-17T18:15:56.723Z,76.20
2022-09-17T18:18:25.096Z,75.80
2022-09-17T18:20:54.048Z,76.10
2022-09-17T18:23:21.303Z,75.70
2022-09-17T18:25:59.438Z,75.70
2022-09-17T18:28:27.840Z,75.70
2022-09-17T18:30:55.744Z,75.60
2022-09-17T18:33:27.880Z,75.60
2022-09-17T18:35:57.629Z,75.70
2022-09-17T18:38:25.097Z,75.90
2022-09-17T18:40:52.834Z,75.80
2022-09-17T18:43:20.028Z,75.40
2022-09-17T18:45:58.014Z,75.40
2022-09-17T18:48:25.511Z,75.40
2022-09-17T18:51:00.815Z,75.20
2022-09-17T18:53:29.440Z,75.20
2022-09-17T18:56:00.246Z,75.00
2022-09-17T18:58:27.217Z,75.10
2022-09-17T19:00:54.222Z,75.10
2022-09-17T19:03:21.244Z,75.10
2022-09-17T19:05:48.179Z,75.10
2022-09-17T19:08:15.299Z,74.80
2022-09-17T19:10:42.255Z,74.60
2022-09-17T19:13:09.246Z,74.80
2022-09-17T19:15:36.478Z,74.80
2022-09-17T19:18:03.625Z,74.80
2022-09-17T19:20:36.286Z,74.70
2022-09-17T19:23:04.783Z,74.70
2022-09-17T19:25:32.790Z,74.70
2022-09-17T19:27:59.737Z,74.60
2022-09-17T19:30:27.260Z,74.60
2022-09-17T19:32:54.242Z,74.50
2022-09-17T19:35:21.442Z,74.70
2022-09-17T19:37:48.371Z,74.60
2022-09-17T19:40:15.488Z,74.40
2022-09-17T19:42:42.616Z,74.50
2022-09-17T19:45:10.219Z,74.40
2022-09-17T19:47:37.382Z,74.40
2022-09-17T19:50:04.605Z,74.20
2022-09-17T19:52:31.648Z,74.30
2022-09-17T19:54:58.669Z,74.60
2022-09-17T19:57:25.903Z,74.40
2022-09-17T19:59:52.867Z,74.30
2022-09-17T20:02:19.992Z,74.30
2022-09-17T20:04:47.220Z,74.30
2022-09-17T20:07:14.209Z,74.20
2022-09-17T20:09:41.184Z,74.20
2022-09-17T20:12:08.125Z,74.10
2022-09-17T20:14:35.162Z,74.20
2022-09-17T20:17:02.104Z,74.10
2022-09-17T20:19:29.136Z,74.20
2022-09-17T20:21:56.290Z,74.70
2022-09-17T20:24:23.409Z,74.40
2022-09-17T20:26:50.373Z,74.40
2022-09-17T20:29:17.575Z,74.20
2022-09-17T20:31:44.576Z,74.30
2022-09-17T20:34:12.512Z,74.30
2022-09-17T20:36:39.650Z,74.20
2022-09-17T20:39:22.300Z,74.30
2022-09-17T20:41:50.222Z,74.30
2022-09-17T20:44:18.110Z,74.30
2022-09-17T20:46:45.182Z,74.30
2022-09-17T20:49:12.193Z,74.30
2022-09-17T20:51:39.365Z,74.30
2022-09-17T20:54:08.100Z,74.30
2022-09-17T20:56:35.720Z,74.30
2022-09-17T20:59:13.207Z,74.30
2022-09-17T21:01:45.566Z,74.30
2022-09-17T21:04:19.510Z,74.30
2022-09-17T21:06:47.915Z,74.40
2022-09-17T21:09:18.094Z,74.30
2022-09-17T21:11:47.123Z,74.30
2022-09-17T21:14:18.621Z,74.30
2022-09-17T21:16:46.600Z,74.20
2022-09-17T21:19:16.349Z,74.30
2022-09-17T21:21:43.908Z,73.50
2022-09-17T21:24:10.998Z,74.30
2022-09-17T21:26:38.174Z,74.30
2022-09-17T21:29:05.179Z,74.10
2022-09-17T21:31:34.461Z,74.30
2022-09-17T21:34:03.800Z,74.40
2022-09-17T21:36:34.012Z,74.40
2022-09-17T21:39:16.691Z,74.40
2022-09-17T21:41:44.990Z,74.40
2022-09-17T21:44:13.287Z,74.50
2022-09-17T21:46:41.259Z,74.40
2022-09-17T21:49:08.654Z,74.50
2022-09-17T21:51:39.660Z,74.40
2022-09-17T21:54:12.586Z,74.50
2022-09-17T21:56:39.852Z,73.80
2022-09-17T21:59:09.360Z,74.60
2022-09-17T22:01:41.938Z,74.60
2022-09-17T22:04:11.300Z,74.60
2022-09-17T22:06:38.564Z,74.10
2022-09-17T22:09:07.936Z,74.80
2022-09-17T22:11:37.383Z,74.90
2022-09-17T22:14:11.410Z,74.90
2022-09-17T22:16:44.529Z,75.00
2022-09-17T22:19:15.045Z,75.00
2022-09-17T22:21:46.172Z,75.00
2022-09-17T22:24:14.465Z,75.00
2022-09-17T22:26:43.956Z,75.10
2022-09-17T22:29:17.470Z,75.10
2022-09-17T22:31:45.337Z,75.10
2022-09-17T22:34:15.423Z,75.10
2022-09-17T22:36:42.758Z,76.30
2022-09-17T22:39:10.558Z,75.20
2022-09-17T22:41:44.519Z,75.30
2022-09-17T22:44:17.897Z,75.30
2022-09-17T22:46:46.911Z,75.40
2022-09-17T22:49:14.518Z,75.40
2022-09-17T22:51:42.663Z,75.50
2022-09-17T22:54:14.880Z,75.50
2022-09-17T22:56:42.343Z,75.50
2022-09-17T22:59:09.524Z,75.50
2022-09-17T23:01:37.836Z,75.50
2022-09-17T23:04:06.232Z,75.50
2022-09-17T23:06:36.610Z,75.60
2022-09-17T23:09:04.722Z,75.50
2022-09-17T23:11:34.109Z,75.50
2022-09-17T23:14:03.559Z,75.50
2022-09-17T23:16:44.086Z,75.50
2022-09-17T23:19:11.952Z,75.50
2022-09-17T23:21:39.551Z,75.60
2022-09-17T23:24:06.751Z,75.50
2022-09-17T23:26:33.962Z,75.50
2022-09-17T23:29:05.213Z,75.60
2022-09-17T23:31:35.162Z,75.60
2022-09-17T23:34:02.576Z,75.50
2022-09-17T23:36:31.851Z,75.60
2022-09-17T23:38:59.605Z,75.60
2022-09-17T23:41:29.382Z,75.50
2022-09-17T23:43:58.544Z,75.60
2022-09-17T23:46:28.703Z,75.60
2022-09-17T23:48:55.811Z,75.60
2022-09-17T23:51:24.462Z,75.60
2022-09-17T23:53:51.775Z,75.60
2022-09-17T23:56:24.206Z,75.50
2022-09-17T23:58:51.988Z,75.50
